sensor_id;sensor_type;location;lat;lon;timestamp;temperature;humidity
7004;DHT22;3542;48.812;9.146;2022-09-09T00:01:33;15.80;99.90
7004;DHT22;3542;48.812;9.146;2022-09-09T00:15:10;15.70;99.90
7004;DHT22;3542;48.812;9.146;2022-09-09T00:17:55;15.80;99.90
7004;DHT22;3542;48.812;9.146;2022-09-09T00:20:45;15.90;99.90
7004;DHT22;3542;48.812;9.146;2022-09-09T00:23:18;16.00;99.90
7004;DHT22;3542;48.812;9.146;2022-09-09T00:28:31;16.10;99.90
7004;DHT22;3542;48.812;9.146;2022-09-09T00:31:12;16.20;99.90
7004;DHT22;3542;48.812;9.146;2022-09-09T00:33:39;16.30;99.90
7004;DHT22;3542;48.812;9.146;2022-09-09T00:36:12;16.40;99.90
7004;DHT22;3542;48.812;9.146;2022-09-09T00:38:48;16.50;99.90
7004;DHT22;3542;48.812;9.146;2022-09-09T00:44:34;16.70;99.90
7004;DHT22;3542;48.812;9.146;2022-09-09T00:47:33;16.80;99.90
7004;DHT22;3542;48.812;9.146;2022-09-09T00:50:09;16.80;99.90
7004;DHT22;3542;48.812;9.146;2022-09-09T00:57:58;17.00;99.90
7004;DHT22;3542;48.812;9.146;2022-09-09T02:31:02;16.10;99.90
7004;DHT22;3542;48.812;9.146;2022-09-09T02:33:33;16.00;99.90
7004;DHT22;3542;48.812;9.146;2022-09-09T02:36:01;16.00;99.90
7004;DHT22;3542;48.812;9.146;2022-09-09T02:38:30;16.00;99.90
7004;DHT22;3542;48.812;9.146;2022-09-09T02:40:58;16.00;99.90
7004;DHT22;3542;48.812;9.146;2022-09-09T02:43:24;15.90;99.90
7004;DHT22;3542;48.812;9.146;2022-09-09T02:48:30;15.80;99.90
7004;DHT22;3542;48.812;9.146;2022-09-09T02:51:21;15.80;99.90
7004;DHT22;3542;48.812;9.146;2022-09-09T02:54:00;15.70;99.90
7004;DHT22;3542;48.812;9.146;2022-09-09T02:56:31;15.70;99.90
7004;DHT22;3542;48.812;9.146;2022-09-09T02:58:59;15.70;99.90
7004;DHT22;3542;48.812;9.146;2022-09-09T03:01:24;15.60;99.90
7004;DHT22;3542;48.812;9.146;2022-09-09T03:03:50;15.60;99.90
7004;DHT22;3542;48.812;9.146;2022-09-09T03:06:16;15.60;99.90
7004;DHT22;3542;48.812;9.146;2022-09-09T03:08:41;15.50;99.90
7004;DHT22;3542;48.812;9.146;2022-09-09T03:11:07;15.50;99.90
7004;DHT22;3542;48.812;9.146;2022-09-09T03:13:34;15.40;99.90
7004;DHT22;3542;48.812;9.146;2022-09-09T03:15:59;15.30;99.90
7004;DHT22;3542;48.812;9.146;2022-09-09T03:18:25;15.30;99.90
7004;DHT22;3542;48.812;9.146;2022-09-09T03:20:51;15.20;99.90
7004;DHT22;3542;48.812;9.146;2022-09-09T03:23:16;15.20;99.90
7004;DHT22;3542;48.812;9.146;2022-09-09T03:25:47;15.10;99.90
7004;DHT22;3542;48.812;9.146;2022-09-09T03:28:13;15.00;99.90
7004;DHT22;3542;48.812;9.146;2022-09-09T03:30:39;15.00;99.90
7004;DHT22;3542;48.812;9.146;2022-09-09T03:33:04;15.00;99.90
7004;DHT22;3542;48.812;9.146;2022-09-09T03:35:30;15.00;99.90
7004;DHT22;3542;48.812;9.146;2022-09-09T03:37:55;14.90;99.90
7004;DHT22;3542;48.812;9.146;2022-09-09T03:40:22;14.90;99.90
7004;DHT22;3542;48.812;9.146;2022-09-09T03:42:47;14.80;99.90
7004;DHT22;3542;48.812;9.146;2022-09-09T03:45:14;14.80;99.90
7004;DHT22;3542;48.812;9.146;2022-09-09T03:47:39;14.80;99.90
7004;DHT22;3542;48.812;9.146;2022-09-09T03:50:06;14.90;99.90
7004;DHT22;3542;48.812;9.146;2022-09-09T03:52:35;14.90;99.90
7004;DHT22;3542;48.812;9.146;2022-09-09T03:55:00;15.00;99.90
7004;DHT22;3542;48.812;9.146;2022-09-09T03:57:26;15.10;99.90
7004;DHT22;3542;48.812;9.146;2022-09-09T03:59:52;15.10;99.90
7004;DHT22;3542;48.812;9.146;2022-09-09T04:02:17;15.10;99.90
7004;DHT22;3542;48.812;9.146;2022-09-09T04:04:43;15.20;99.90
7004;DHT22;3542;48.812;9.146;2022-09-09T04:07:08;15.20;99.90
7004;DHT22;3542;48.812;9.146;2022-09-09T04:09:34;15.30;99.90
7004;DHT22;3542;48.812;9.146;2022-09-09T04:12:00;15.50;99.90
7004;DHT22;3542;48.812;9.146;2022-09-09T04:14:25;15.70;99.90
7004;DHT22;3542;48.812;9.146;2022-09-09T04:16:54;15.80;99.90
7004;DHT22;3542;48.812;9.146;2022-09-09T04:19:19;16.00;99.90
7004;DHT22;3542;48.812;9.146;2022-09-09T04:21:45;16.20;99.90
7004;DHT22;3542;48.812;9.146;2022-09-09T04:24:10;16.30;99.90
7004;DHT22;3542;48.812;9.146;2022-09-09T04:26:37;16.30;99.90
7004;DHT22;3542;48.812;9.146;2022-09-09T04:29:05;16.30;99.90
7004;DHT22;3542;48.812;9.146;2022-09-09T04:31:33;16.30;99.90
7004;DHT22;3542;48.812;9.146;2022-09-09T04:33:58;16.40;99.90
7004;DHT22;3542;48.812;9.146;2022-09-09T04:36:27;16.40;99.90
7004;DHT22;3542;48.812;9.146;2022-09-09T04:38:53;16.40;99.90
7004;DHT22;3542;48.812;9.146;2022-09-09T04:41:18;16.40;99.90
7004;DHT22;3542;48.812;9.146;2022-09-09T04:43:44;16.40;99.90
7004;DHT22;3542;48.812;9.146;2022-09-09T04:46:10;16.40;99.90
7004;DHT22;3542;48.812;9.146;2022-09-09T04:48:36;16.40;99.90
7004;DHT22;3542;48.812;9.146;2022-09-09T04:51:05;16.40;99.90
7004;DHT22;3542;48.812;9.146;2022-09-09T04:53:30;16.30;99.90
7004;DHT22;3542;48.812;9.146;2022-09-09T04:56:12;16.20;99.90
7004;DHT22;3542;48.812;9.146;2022-09-09T04:58:39;16.20;99.90
7004;DHT22;3542;48.812;9.146;2022-09-09T05:01:15;16.10;99.90
7004;DHT22;3542;48.812;9.146;2022-09-09T05:03:43;16.10;99.90
7004;DHT22;3542;48.812;9.146;2022-09-09T05:06:15;16.10;99.90
7004;DHT22;3542;48.812;9.146;2022-09-09T05:08:43;16.10;99.90
7004;DHT22;3542;48.812;9.146;2022-09-09T05:11:19;16.10;99.90
7004;DHT22;3542;48.812;9.146;2022-09-09T05:13:46;16.20;99.90
7004;DHT22;3542;48.812;9.146;2022-09-09T05:16:13;16.20;99.90
7004;DHT22;3542;48.812;9.146;2022-09-09T05:18:39;16.20;99.90
7004;DHT22;3542;48.812;9.146;2022-09-09T05:21:06;16.40;99.90
7004;DHT22;3542;48.812;9.146;2022-09-09T05:23:32;16.40;99.90
7004;DHT22;3542;48.812;9.146;2022-09-09T05:25:59;16.40;99.90
7004;DHT22;3542;48.812;9.146;2022-09-09T05:28:26;16.50;99.90
7004;DHT22;3542;48.812;9.146;2022-09-09T05:30:59;16.50;99.90
7004;DHT22;3542;48.812;9.146;2022-09-09T05:33:26;16.70;99.90
7004;DHT22;3542;48.812;9.146;2022-09-09T05:35:59;16.80;99.90
7004;DHT22;3542;48.812;9.146;2022-09-09T05:38:25;16.80;99.90
7004;DHT22;3542;48.812;9.146;2022-09-09T05:40:52;16.90;99.90
7004;DHT22;3542;48.812;9.146;2022-09-09T05:43:21;17.00;99.90
7004;DHT22;3542;48.812;9.146;2022-09-09T05:45:47;17.00;99.90
7004;DHT22;3542;48.812;9.146;2022-09-09T05:48:16;17.10;99.90
7004;DHT22;3542;48.812;9.146;2022-09-09T05:50:43;17.10;99.90
7004;DHT22;3542;48.812;9.146;2022-09-09T05:53:10;17.00;99.90
7004;DHT22;3542;48.812;9.146;2022-09-09T05:55:36;17.00;99.90
7004;DHT22;3542;48.812;9.146;2022-09-09T05:58:02;17.00;99.90
7004;DHT22;3542;48.812;9.146;2022-09-09T06:00:28;17.00;99.90
7004;DHT22;3542;48.812;9.146;2022-09-09T06:02:54;17.10;99.90
7004;DHT22;3542;48.812;9.146;2022-09-09T06:05:20;17.10;99.90
7004;DHT22;3542;48.812;9.146;2022-09-09T06:07:48;17.20;99.90
7004;DHT22;3542;48.812;9.146;2022-09-09T06:10:13;17.20;99.90
7004;DHT22;3542;48.812;9.146;2022-09-09T06:12:39;17.30;99.90
7004;DHT22;3542;48.812;9.146;2022-09-09T06:15:05;17.40;99.90
7004;DHT22;3542;48.812;9.146;2022-09-09T06:17:31;17.40;99.90
7004;DHT22;3542;48.812;9.146;2022-09-09T06:19:56;17.50;99.90
7004;DHT22;3542;48.812;9.146;2022-09-09T06:22:22;17.60;99.90
7004;DHT22;3542;48.812;9.146;2022-09-09T06:24:48;17.60;99.90
7004;DHT22;3542;48.812;9.146;2022-09-09T06:27:13;17.60;99.90
7004;DHT22;3542;48.812;9.146;2022-09-09T06:29:39;17.70;99.90
7004;DHT22;3542;48.812;9.146;2022-09-09T06:32:04;17.70;99.90
7004;DHT22;3542;48.812;9.146;2022-09-09T06:34:30;17.80;99.90
7004;DHT22;3542;48.812;9.146;2022-09-09T06:36:56;17.80;99.90
7004;DHT22;3542;48.812;9.146;2022-09-09T06:39:23;17.80;99.90
7004;DHT22;3542;48.812;9.146;2022-09-09T06:41:48;17.80;99.90
7004;DHT22;3542;48.812;9.146;2022-09-09T06:44:15;17.80;99.90
7004;DHT22;3542;48.812;9.146;2022-09-09T06:46:41;17.70;99.90
7004;DHT22;3542;48.812;9.146;2022-09-09T06:49:08;17.80;99.90
7004;DHT22;3542;48.812;9.146;2022-09-09T06:51:36;17.80;99.90
7004;DHT22;3542;48.812;9.146;2022-09-09T06:54:03;17.80;99.90
7004;DHT22;3542;48.812;9.146;2022-09-09T06:56:34;17.90;99.90
7004;DHT22;3542;48.812;9.146;2022-09-09T06:59:02;17.90;99.90
7004;DHT22;3542;48.812;9.146;2022-09-09T07:01:31;18.00;99.90
7004;DHT22;3542;48.812;9.146;2022-09-09T07:03:58;18.00;99.90
7004;DHT22;3542;48.812;9.146;2022-09-09T07:06:31;18.10;99.90
7004;DHT22;3542;48.812;9.146;2022-09-09T07:08:59;18.20;99.90
7004;DHT22;3542;48.812;9.146;2022-09-09T07:11:28;18.30;99.90
7004;DHT22;3542;48.812;9.146;2022-09-09T07:13:54;18.40;99.90
7004;DHT22;3542;48.812;9.146;2022-09-09T07:16:21;18.50;99.90
7004;DHT22;3542;48.812;9.146;2022-09-09T07:18:50;18.70;99.90
7004;DHT22;3542;48.812;9.146;2022-09-09T07:21:17;18.80;99.90
7004;DHT22;3542;48.812;9.146;2022-09-09T07:23:42;18.90;99.90
7004;DHT22;3542;48.812;9.146;2022-09-09T07:26:10;19.10;99.90
7004;DHT22;3542;48.812;9.146;2022-09-09T07:28:36;19.10;99.90
7004;DHT22;3542;48.812;9.146;2022-09-09T07:31:02;19.30;99.90
7004;DHT22;3542;48.812;9.146;2022-09-09T07:33:29;19.40;99.90
7004;DHT22;3542;48.812;9.146;2022-09-09T07:36:09;19.40;99.90
7004;DHT22;3542;48.812;9.146;2022-09-09T07:38:42;19.80;99.90
7004;DHT22;3542;48.812;9.146;2022-09-09T07:41:13;20.10;99.90
7004;DHT22;3542;48.812;9.146;2022-09-09T07:43:42;20.30;99.90
7004;DHT22;3542;48.812;9.146;2022-09-09T07:46:09;20.50;99.90
7004;DHT22;3542;48.812;9.146;2022-09-09T07:48:35;20.60;99.90
7004;DHT22;3542;48.812;9.146;2022-09-09T07:51:11;20.70;99.90
7004;DHT22;3542;48.812;9.146;2022-09-09T07:53:38;20.80;99.90
7004;DHT22;3542;48.812;9.146;2022-09-09T07:56:10;21.20;99.90
7004;DHT22;3542;48.812;9.146;2022-09-09T07:58:37;22.20;99.90
7004;DHT22;3542;48.812;9.146;2022-09-09T08:01:10;23.20;99.90
7004;DHT22;3542;48.812;9.146;2022-09-09T08:03:36;24.00;99.90
7004;DHT22;3542;48.812;9.146;2022-09-09T08:06:04;24.60;99.90
7004;DHT22;3542;48.812;9.146;2022-09-09T08:08:31;24.60;99.90
7004;DHT22;3542;48.812;9.146;2022-09-09T08:11:06;24.80;99.90
7004;DHT22;3542;48.812;9.146;2022-09-09T08:13:33;25.00;99.90
7004;DHT22;3542;48.812;9.146;2022-09-09T08:16:16;25.50;99.90
7004;DHT22;3542;48.812;9.146;2022-09-09T08:18:43;26.00;99.90
7004;DHT22;3542;48.812;9.146;2022-09-09T08:21:13;26.40;99.90
7004;DHT22;3542;48.812;9.146;2022-09-09T08:23:42;26.60;99.90
7004;DHT22;3542;48.812;9.146;2022-09-09T08:26:16;26.90;99.90
7004;DHT22;3542;48.812;9.146;2022-09-09T08:28:43;27.10;99.90
7004;DHT22;3542;48.812;9.146;2022-09-09T08:31:10;27.60;99.90
7004;DHT22;3542;48.812;9.146;2022-09-09T08:33:36;27.70;99.90
7004;DHT22;3542;48.812;9.146;2022-09-09T08:36:04;27.80;99.90
7004;DHT22;3542;48.812;9.146;2022-09-09T08:38:30;26.90;99.90
7004;DHT22;3542;48.812;9.146;2022-09-09T08:43:34;26.50;99.90
7004;DHT22;3542;48.812;9.146;2022-09-09T08:49:29;27.10;99.90
7004;DHT22;3542;48.812;9.146;2022-09-09T08:51:44;27.40;99.90
7004;DHT22;3542;48.812;9.146;2022-09-09T08:54:10;27.50;99.90
7004;DHT22;3542;48.812;9.146;2022-09-09T08:56:36;27.70;99.90
7004;DHT22;3542;48.812;9.146;2022-09-09T08:59:02;28.10;99.90
7004;DHT22;3542;48.812;9.146;2022-09-09T09:04:49;28.30;99.90
7004;DHT22;3542;48.812;9.146;2022-09-09T09:12:44;27.50;99.90
7004;DHT22;3542;48.812;9.146;2022-09-09T09:15:28;27.40;99.90
7004;DHT22;3542;48.812;9.146;2022-09-09T09:17:55;26.60;99.90
7004;DHT22;3542;48.812;9.146;2022-09-09T09:20:36;25.60;99.90
7004;DHT22;3542;48.812;9.146;2022-09-09T09:23:04;24.70;99.90
7004;DHT22;3542;48.812;9.146;2022-09-09T09:25:39;23.90;99.90
7004;DHT22;3542;48.812;9.146;2022-09-09T09:28:16;23.30;99.90
7004;DHT22;3542;48.812;9.146;2022-09-09T09:31:10;22.80;99.90
7004;DHT22;3542;48.812;9.146;2022-09-09T09:33:50;22.40;99.90
7004;DHT22;3542;48.812;9.146;2022-09-09T09:36:18;22.00;99.90
7004;DHT22;3542;48.812;9.146;2022-09-09T09:38:57;21.70;99.90
7004;DHT22;3542;48.812;9.146;2022-09-09T09:41:36;21.60;99.90
7004;DHT22;3542;48.812;9.146;2022-09-09T09:44:05;21.80;99.90
7004;DHT22;3542;48.812;9.146;2022-09-09T09:46:31;22.40;99.90
7004;DHT22;3542;48.812;9.146;2022-09-09T09:49:05;23.50;99.90
7004;DHT22;3542;48.812;9.146;2022-09-09T09:51:34;24.40;99.90
7004;DHT22;3542;48.812;9.146;2022-09-09T09:54:33;25.20;99.90
7004;DHT22;3542;48.812;9.146;2022-09-09T09:57:12;26.10;99.90
7004;DHT22;3542;48.812;9.146;2022-09-09T09:59:40;27.00;99.90
7004;DHT22;3542;48.812;9.146;2022-09-09T10:02:21;27.50;99.90
7004;DHT22;3542;48.812;9.146;2022-09-09T10:05:04;27.80;99.90
7004;DHT22;3542;48.812;9.146;2022-09-09T10:07:30;28.30;99.90
7004;DHT22;3542;48.812;9.146;2022-09-09T10:09:57;28.90;99.90
7004;DHT22;3542;48.812;9.146;2022-09-09T10:23:42;28.90;99.90
7004;DHT22;3542;48.812;9.146;2022-09-09T10:29:17;28.70;99.90
7004;DHT22;3542;48.812;9.146;2022-09-09T10:35:02;28.70;99.90
7004;DHT22;3542;48.812;9.146;2022-09-09T10:37:37;27.80;99.90
7004;DHT22;3542;48.812;9.146;2022-09-09T10:40:36;27.30;99.90
7004;DHT22;3542;48.812;9.146;2022-09-09T10:56:28;26.80;99.90
7004;DHT22;3542;48.812;9.146;2022-09-09T10:59:18;26.00;99.90
7004;DHT22;3542;48.812;9.146;2022-09-09T11:01:57;26.10;99.90
7004;DHT22;3542;48.812;9.146;2022-09-09T11:04:45;25.60;99.90
7004;DHT22;3542;48.812;9.146;2022-09-09T11:07:17;25.80;99.90
7004;DHT22;3542;48.812;9.146;2022-09-09T11:09:53;25.40;99.90
7004;DHT22;3542;48.812;9.146;2022-09-09T11:12:21;24.70;99.90
7004;DHT22;3542;48.812;9.146;2022-09-09T11:14:54;23.70;99.90
7004;DHT22;3542;48.812;9.146;2022-09-09T11:17:36;23.00;99.90
7004;DHT22;3542;48.812;9.146;2022-09-09T11:20:05;22.50;99.90
7004;DHT22;3542;48.812;9.146;2022-09-09T11:22:47;22.00;99.90
7004;DHT22;3542;48.812;9.146;2022-09-09T11:28:37;21.60;99.90
7004;DHT22;3542;48.812;9.146;2022-09-09T11:33:58;21.40;99.90
7004;DHT22;3542;48.812;9.146;2022-09-09T11:36:56;21.40;99.90
7004;DHT22;3542;48.812;9.146;2022-09-09T11:44:41;21.50;99.90
7004;DHT22;3542;48.812;9.146;2022-09-09T11:47:27;21.30;99.90
7004;DHT22;3542;48.812;9.146;2022-09-09T11:52:48;21.30;99.90
7004;DHT22;3542;48.812;9.146;2022-09-09T11:55:30;21.10;99.90
7004;DHT22;3542;48.812;9.146;2022-09-09T11:58:02;21.00;99.90
7004;DHT22;3542;48.812;9.146;2022-09-09T12:00:46;21.00;99.90
7004;DHT22;3542;48.812;9.146;2022-09-09T12:06:41;21.10;99.90
7004;DHT22;3542;48.812;9.146;2022-09-09T12:09:25;21.40;99.90
7004;DHT22;3542;48.812;9.146;2022-09-09T12:11:52;21.70;99.90
7004;DHT22;3542;48.812;9.146;2022-09-09T12:14:34;21.70;99.90
7004;DHT22;3542;48.812;9.146;2022-09-09T12:17:16;22.00;99.90
7004;DHT22;3542;48.812;9.146;2022-09-09T12:19:42;22.20;99.90
7004;DHT22;3542;48.812;9.146;2022-09-09T12:28:02;23.20;99.90
7004;DHT22;3542;48.812;9.146;2022-09-09T12:30:34;23.30;99.90
7004;DHT22;3542;48.812;9.146;2022-09-09T12:33:12;23.40;99.90
7004;DHT22;3542;48.812;9.146;2022-09-09T12:35:38;23.40;99.90
7004;DHT22;3542;48.812;9.146;2022-09-09T12:38:06;23.50;99.90
7004;DHT22;3542;48.812;9.146;2022-09-09T12:40:36;23.70;99.90
7004;DHT22;3542;48.812;9.146;2022-09-09T12:43:20;23.50;99.90
7004;DHT22;3542;48.812;9.146;2022-09-09T12:45:47;23.10;99.90
7004;DHT22;3542;48.812;9.146;2022-09-09T12:48:18;22.80;99.90
7004;DHT22;3542;48.812;9.146;2022-09-09T12:50:50;23.00;99.90
7004;DHT22;3542;48.812;9.146;2022-09-09T12:53:26;23.10;99.90
7004;DHT22;3542;48.812;9.146;2022-09-09T12:56:03;22.80;99.90
7004;DHT22;3542;48.812;9.146;2022-09-09T12:58:30;22.90;99.90
7004;DHT22;3542;48.812;9.146;2022-09-09T13:01:00;22.90;99.90
7004;DHT22;3542;48.812;9.146;2022-09-09T13:03:30;22.90;99.90
7004;DHT22;3542;48.812;9.146;2022-09-09T13:06:17;23.00;99.90
7004;DHT22;3542;48.812;9.146;2022-09-09T13:08:43;23.10;99.90
7004;DHT22;3542;48.812;9.146;2022-09-09T13:11:14;23.10;99.90
7004;DHT22;3542;48.812;9.146;2022-09-09T13:13:43;23.30;99.90
7004;DHT22;3542;48.812;9.146;2022-09-09T13:16:34;23.50;99.90
7004;DHT22;3542;48.812;9.146;2022-09-09T13:19:06;23.70;99.90
7004;DHT22;3542;48.812;9.146;2022-09-09T13:21:37;23.80;99.90
7004;DHT22;3542;48.812;9.146;2022-09-09T13:24:30;23.80;99.90
7004;DHT22;3542;48.812;9.146;2022-09-09T13:27:05;24.00;99.90
7004;DHT22;3542;48.812;9.146;2022-09-09T13:29:51;24.00;99.90
7004;DHT22;3542;48.812;9.146;2022-09-09T13:32:20;24.00;99.90
7004;DHT22;3542;48.812;9.146;2022-09-09T13:34:51;24.00;99.90
7004;DHT22;3542;48.812;9.146;2022-09-09T13:37:28;23.70;99.90
7004;DHT22;3542;48.812;9.146;2022-09-09T13:39:55;23.70;99.90
7004;DHT22;3542;48.812;9.146;2022-09-09T13:42:28;23.60;99.90
7004;DHT22;3542;48.812;9.146;2022-09-09T13:44:56;23.50;99.90
7004;DHT22;3542;48.812;9.146;2022-09-09T13:47:35;23.50;99.90
7004;DHT22;3542;48.812;9.146;2022-09-09T13:50:22;23.50;99.90
7004;DHT22;3542;48.812;9.146;2022-09-09T13:52:49;23.40;99.90
7004;DHT22;3542;48.812;9.146;2022-09-09T13:55:17;23.20;99.90
7004;DHT22;3542;48.812;9.146;2022-09-09T13:57:53;23.20;99.90
7004;DHT22;3542;48.812;9.146;2022-09-09T14:00:20;23.20;99.90
7004;DHT22;3542;48.812;9.146;2022-09-09T14:02:46;23.40;99.90
7004;DHT22;3542;48.812;9.146;2022-09-09T14:05:12;23.60;99.90
7004;DHT22;3542;48.812;9.146;2022-09-09T14:07:39;23.50;99.90
7004;DHT22;3542;48.812;9.146;2022-09-09T14:10:06;23.40;99.90
7004;DHT22;3542;48.812;9.146;2022-09-09T14:12:32;23.20;99.90
7004;DHT22;3542;48.812;9.146;2022-09-09T14:14:57;23.30;99.90
7004;DHT22;3542;48.812;9.146;2022-09-09T14:17:25;23.30;99.90
7004;DHT22;3542;48.812;9.146;2022-09-09T14:19:52;23.10;99.90
7004;DHT22;3542;48.812;9.146;2022-09-09T14:22:18;23.20;99.90
7004;DHT22;3542;48.812;9.146;2022-09-09T14:24:43;23.20;99.90
7004;DHT22;3542;48.812;9.146;2022-09-09T14:27:09;23.30;99.90
7004;DHT22;3542;48.812;9.146;2022-09-09T14:29:34;23.40;99.90
7004;DHT22;3542;48.812;9.146;2022-09-09T14:32:00;23.40;99.90
7004;DHT22;3542;48.812;9.146;2022-09-09T14:34:26;23.30;99.90
7004;DHT22;3542;48.812;9.146;2022-09-09T14:36:52;23.30;99.90
7004;DHT22;3542;48.812;9.146;2022-09-09T14:39:17;23.30;99.90
7004;DHT22;3542;48.812;9.146;2022-09-09T14:41:43;23.30;99.90
7004;DHT22;3542;48.812;9.146;2022-09-09T14:44:08;23.10;99.90
7004;DHT22;3542;48.812;9.146;2022-09-09T14:46:34;23.00;99.90
7004;DHT22;3542;48.812;9.146;2022-09-09T14:48:59;22.90;99.90
7004;DHT22;3542;48.812;9.146;2022-09-09T14:51:26;23.10;99.90
7004;DHT22;3542;48.812;9.146;2022-09-09T14:53:58;23.20;99.90
7004;DHT22;3542;48.812;9.146;2022-09-09T14:56:27;23.20;99.90
7004;DHT22;3542;48.812;9.146;2022-09-09T14:58:54;23.30;99.90
7004;DHT22;3542;48.812;9.146;2022-09-09T15:01:21;23.20;99.90
7004;DHT22;3542;48.812;9.146;2022-09-09T15:03:53;23.10;99.90
7004;DHT22;3542;48.812;9.146;2022-09-09T15:06:19;23.00;99.90
7004;DHT22;3542;48.812;9.146;2022-09-09T15:08:46;22.90;99.90
7004;DHT22;3542;48.812;9.146;2022-09-09T15:11:13;22.80;99.90
7004;DHT22;3542;48.812;9.146;2022-09-09T15:13:40;22.70;99.90
7004;DHT22;3542;48.812;9.146;2022-09-09T15:16:08;22.60;99.90
7004;DHT22;3542;48.812;9.146;2022-09-09T15:18:34;22.60;99.90
7004;DHT22;3542;48.812;9.146;2022-09-09T15:21:04;22.50;99.90
7004;DHT22;3542;48.812;9.146;2022-09-09T15:23:32;22.40;99.90
7004;DHT22;3542;48.812;9.146;2022-09-09T15:25:57;22.20;99.90
7004;DHT22;3542;48.812;9.146;2022-09-09T15:28:23;22.10;99.90
7004;DHT22;3542;48.812;9.146;2022-09-09T15:30:53;22.10;99.90
7004;DHT22;3542;48.812;9.146;2022-09-09T15:33:20;22.10;99.90
7004;DHT22;3542;48.812;9.146;2022-09-09T15:35:46;22.10;99.90
7004;DHT22;3542;48.812;9.146;2022-09-09T15:38:12;22.10;99.90
7004;DHT22;3542;48.812;9.146;2022-09-09T15:40:41;22.00;99.90
7004;DHT22;3542;48.812;9.146;2022-09-09T15:43:07;22.00;99.90
7004;DHT22;3542;48.812;9.146;2022-09-09T15:45:34;22.10;99.90
7004;DHT22;3542;48.812;9.146;2022-09-09T15:48:01;22.00;99.90
7004;DHT22;3542;48.812;9.146;2022-09-09T15:50:27;22.00;99.90
7004;DHT22;3542;48.812;9.146;2022-09-09T15:52:53;21.80;99.90
7004;DHT22;3542;48.812;9.146;2022-09-09T15:55:19;21.80;99.90
7004;DHT22;3542;48.812;9.146;2022-09-09T15:57:49;21.60;99.90
7004;DHT22;3542;48.812;9.146;2022-09-09T16:00:16;21.60;99.90
7004;DHT22;3542;48.812;9.146;2022-09-09T16:02:41;21.50;99.90
7004;DHT22;3542;48.812;9.146;2022-09-09T16:05:08;21.40;99.90
7004;DHT22;3542;48.812;9.146;2022-09-09T16:07:34;21.40;99.90
7004;DHT22;3542;48.812;9.146;2022-09-09T16:10:01;21.40;99.90
7004;DHT22;3542;48.812;9.146;2022-09-09T16:12:26;21.50;99.90
7004;DHT22;3542;48.812;9.146;2022-09-09T16:14:52;21.50;99.90
7004;DHT22;3542;48.812;9.146;2022-09-09T16:17:17;21.50;99.90
7004;DHT22;3542;48.812;9.146;2022-09-09T16:19:45;21.40;99.90
7004;DHT22;3542;48.812;9.146;2022-09-09T16:22:11;21.30;99.90
7004;DHT22;3542;48.812;9.146;2022-09-09T16:24:36;21.20;99.90
7004;DHT22;3542;48.812;9.146;2022-09-09T16:27:03;21.10;99.90
7004;DHT22;3542;48.812;9.146;2022-09-09T16:29:29;21.00;99.90
7004;DHT22;3542;48.812;9.146;2022-09-09T16:31:54;20.70;99.90
7004;DHT22;3542;48.812;9.146;2022-09-09T16:34:20;20.50;99.90
7004;DHT22;3542;48.812;9.146;2022-09-09T16:36:48;20.10;99.90
7004;DHT22;3542;48.812;9.146;2022-09-09T16:39:18;19.90;99.90
7004;DHT22;3542;48.812;9.146;2022-09-09T16:41:45;19.70;99.90
7004;DHT22;3542;48.812;9.146;2022-09-09T16:44:14;19.60;99.90
7004;DHT22;3542;48.812;9.146;2022-09-09T16:46:42;19.50;99.90
7004;DHT22;3542;48.812;9.146;2022-09-09T16:49:13;19.50;99.90
7004;DHT22;3542;48.812;9.146;2022-09-09T16:51:41;19.50;99.90
7004;DHT22;3542;48.812;9.146;2022-09-09T16:54:08;19.50;99.90
7004;DHT22;3542;48.812;9.146;2022-09-09T16:56:37;19.50;99.90
7004;DHT22;3542;48.812;9.146;2022-09-09T16:59:05;19.30;99.90
7004;DHT22;3542;48.812;9.146;2022-09-09T17:01:33;19.10;99.90
7004;DHT22;3542;48.812;9.146;2022-09-09T17:04:02;18.80;99.90
7004;DHT22;3542;48.812;9.146;2022-09-09T17:06:31;18.70;99.90
7004;DHT22;3542;48.812;9.146;2022-09-09T17:09:06;18.60;99.90
7004;DHT22;3542;48.812;9.146;2022-09-09T17:11:32;18.50;99.90
7004;DHT22;3542;48.812;9.146;2022-09-09T17:13:58;18.40;99.90
7004;DHT22;3542;48.812;9.146;2022-09-09T17:16:28;18.30;99.90
7004;DHT22;3542;48.812;9.146;2022-09-09T17:18:55;18.10;99.90
7004;DHT22;3542;48.812;9.146;2022-09-09T17:21:23;18.10;99.90
7004;DHT22;3542;48.812;9.146;2022-09-09T17:23:51;18.00;99.90
7004;DHT22;3542;48.812;9.146;2022-09-09T17:26:18;17.90;99.90
7004;DHT22;3542;48.812;9.146;2022-09-09T17:28:44;17.80;99.90
7004;DHT22;3542;48.812;9.146;2022-09-09T17:31:16;17.80;99.90
7004;DHT22;3542;48.812;9.146;2022-09-09T17:33:43;17.60;99.90
7004;DHT22;3542;48.812;9.146;2022-09-09T17:36:15;17.50;99.90
7004;DHT22;3542;48.812;9.146;2022-09-09T17:38:41;17.50;99.90
7004;DHT22;3542;48.812;9.146;2022-09-09T17:41:09;17.50;99.90
7004;DHT22;3542;48.812;9.146;2022-09-09T17:43:35;17.30;99.90
7004;DHT22;3542;48.812;9.146;2022-09-09T17:46:16;17.20;99.90
7004;DHT22;3542;48.812;9.146;2022-09-09T17:48:43;17.20;99.90
7004;DHT22;3542;48.812;9.146;2022-09-09T17:51:13;17.20;99.90
7004;DHT22;3542;48.812;9.146;2022-09-09T17:53:41;17.10;99.90
7004;DHT22;3542;48.812;9.146;2022-09-09T17:56:09;17.10;99.90
7004;DHT22;3542;48.812;9.146;2022-09-09T17:58:35;17.10;99.90
7004;DHT22;3542;48.812;9.146;2022-09-09T18:01:03;17.00;99.90
7004;DHT22;3542;48.812;9.146;2022-09-09T18:03:30;16.90;99.90
7004;DHT22;3542;48.812;9.146;2022-09-09T18:06:00;16.90;99.90
7004;DHT22;3542;48.812;9.146;2022-09-09T18:08:26;16.80;99.90
7004;DHT22;3542;48.812;9.146;2022-09-09T18:10:53;16.80;99.90
7004;DHT22;3542;48.812;9.146;2022-09-09T18:13:20;16.70;99.90
7004;DHT22;3542;48.812;9.146;2022-09-09T18:15:45;16.70;99.90
7004;DHT22;3542;48.812;9.146;2022-09-09T18:18:11;16.60;99.90
7004;DHT22;3542;48.812;9.146;2022-09-09T18:20:36;16.60;99.90
7004;DHT22;3542;48.812;9.146;2022-09-09T18:23:02;16.60;99.90
7004;DHT22;3542;48.812;9.146;2022-09-09T18:25:27;16.50;99.90
7004;DHT22;3542;48.812;9.146;2022-09-09T18:27:53;16.50;99.90
7004;DHT22;3542;48.812;9.146;2022-09-09T18:30:19;16.60;99.90
7004;DHT22;3542;48.812;9.146;2022-09-09T18:32:48;16.60;99.90
7004;DHT22;3542;48.812;9.146;2022-09-09T18:35:14;16.60;99.90
7004;DHT22;3542;48.812;9.146;2022-09-09T18:37:40;16.60;99.90
7004;DHT22;3542;48.812;9.146;2022-09-09T18:40:05;16.50;99.90
7004;DHT22;3542;48.812;9.146;2022-09-09T18:42:31;16.50;99.90
7004;DHT22;3542;48.812;9.146;2022-09-09T18:44:56;16.50;99.90
7004;DHT22;3542;48.812;9.146;2022-09-09T18:47:22;16.50;99.90
7004;DHT22;3542;48.812;9.146;2022-09-09T18:49:49;16.50;99.90
7004;DHT22;3542;48.812;9.146;2022-09-09T18:52:15;16.50;99.90
7004;DHT22;3542;48.812;9.146;2022-09-09T18:54:40;16.40;99.90
7004;DHT22;3542;48.812;9.146;2022-09-09T18:57:10;16.40;99.90
7004;DHT22;3542;48.812;9.146;2022-09-09T18:59:36;16.40;99.90
7004;DHT22;3542;48.812;9.146;2022-09-09T19:02:01;16.30;99.90
7004;DHT22;3542;48.812;9.146;2022-09-09T19:04:27;16.20;99.90
7004;DHT22;3542;48.812;9.146;2022-09-09T19:06:53;16.20;99.90
7004;DHT22;3542;48.812;9.146;2022-09-09T19:09:23;16.20;99.90
7004;DHT22;3542;48.812;9.146;2022-09-09T19:11:49;16.10;99.90
7004;DHT22;3542;48.812;9.146;2022-09-09T19:14:15;16.10;99.90
7004;DHT22;3542;48.812;9.146;2022-09-09T19:16:43;16.00;99.90
7004;DHT22;3542;48.812;9.146;2022-09-09T19:19:30;16.00;99.90
7004;DHT22;3542;48.812;9.146;2022-09-09T19:21:56;15.90;99.90